createdAt,value
2023-04-27T00:00:09.444Z,4.70
2023-04-27T00:02:38.409Z,5.03
2023-04-27T00:05:06.357Z,5.20
2023-04-27T00:07:33.376Z,5.70
2023-04-27T00:10:00.506Z,5.47
2023-04-27T00:12:27.590Z,5.43
2023-04-27T00:14:54.649Z,5.23
2023-04-27T00:17:22.262Z,4.93
2023-04-27T00:19:49.254Z,5.80
2023-04-27T00:22:16.289Z,5.77
2023-04-27T00:24:43.273Z,5.17
2023-04-27T00:27:13.602Z,5.37
2023-04-27T00:29:43.106Z,5.47
2023-04-27T00:32:11.335Z,5.77
2023-04-27T00:34:38.831Z,5.93
2023-04-27T00:37:06.164Z,5.67
2023-04-27T00:39:36.023Z,5.70
2023-04-27T00:42:03.058Z,5.50
2023-04-27T00:44:30.062Z,5.50
2023-04-27T00:46:59.039Z,5.17
2023-04-27T00:49:27.502Z,5.40
2023-04-27T00:51:55.176Z,5.13
2023-04-27T00:54:23.862Z,5.23
2023-04-27T00:56:52.688Z,5.63
2023-04-27T00:59:20.315Z,4.77
2023-04-27T01:01:47.922Z,4.97
2023-04-27T01:04:16.952Z,4.47
2023-04-27T01:06:44.493Z,4.40
2023-04-27T01:09:11.962Z,4.77
2023-04-27T01:11:39.157Z,4.20
2023-04-27T01:14:08.092Z,4.50
2023-04-27T01:16:37.310Z,4.20
2023-04-27T01:19:04.911Z,4.07
2023-04-27T01:21:31.814Z,4.57
2023-04-27T01:23:58.976Z,5.07
2023-04-27T01:26:26.029Z,4.97
2023-04-27T01:28:52.937Z,5.00
2023-04-27T01:31:20.191Z,5.10
2023-04-27T01:33:47.315Z,4.27
2023-04-27T01:36:14.342Z,4.70
2023-04-27T01:38:41.807Z,4.70
2023-04-27T01:41:09.332Z,4.70
2023-04-27T01:43:39.830Z,4.10
2023-04-27T01:46:12.754Z,4.97
2023-04-27T01:48:42.851Z,5.10
2023-04-27T01:51:11.453Z,4.80
2023-04-27T01:53:38.485Z,4.70
2023-04-27T01:56:06.750Z,4.90
2023-04-27T01:58:33.774Z,4.80
2023-04-27T02:01:00.840Z,4.70
2023-04-27T02:03:29.408Z,4.33
2023-04-27T02:05:56.383Z,4.30
2023-04-27T02:08:24.195Z,4.63
2023-04-27T02:10:51.982Z,4.60
2023-04-27T02:13:18.979Z,4.63
2023-04-27T02:15:46.188Z,5.20
2023-04-27T02:18:15.645Z,5.57
2023-04-27T02:20:42.612Z,4.73
2023-04-27T02:23:09.668Z,5.10
2023-04-27T02:25:38.312Z,4.60
2023-04-27T02:28:05.507Z,4.73
2023-04-27T02:30:33.408Z,4.67
2023-04-27T02:33:01.230Z,4.57
2023-04-27T02:35:28.305Z,4.87
2023-04-27T02:37:55.403Z,4.73
2023-04-27T02:40:22.308Z,4.60
2023-04-27T02:42:49.234Z,4.47
2023-04-27T02:45:16.290Z,4.90
2023-04-27T02:47:44.403Z,4.80
2023-04-27T02:50:14.111Z,4.93
2023-04-27T02:52:41.500Z,4.50
2023-04-27T02:55:09.182Z,4.97
2023-04-27T02:57:36.625Z,4.60
2023-04-27T03:00:06.954Z,4.33
2023-04-27T03:02:34.201Z,4.53
2023-04-27T03:05:01.523Z,4.40
2023-04-27T03:07:28.453Z,4.50
2023-04-27T03:09:56.262Z,4.50
2023-04-27T03:12:23.179Z,4.50
2023-04-27T03:14:50.182Z,5.87
2023-04-27T03:17:18.045Z,5.03
2023-04-27T03:19:49.261Z,5.20
2023-04-27T03:22:16.222Z,5.00
2023-04-27T03:24:43.164Z,5.27
2023-04-27T03:27:10.384Z,5.50
2023-04-27T03:29:37.353Z,5.07
2023-04-27T03:32:06.580Z,4.83
2023-04-27T03:34:33.549Z,5.07
2023-04-27T03:37:00.704Z,5.40
2023-04-27T03:39:27.967Z,4.93
2023-04-27T03:41:54.942Z,4.50
2023-04-27T03:44:21.893Z,5.17
2023-04-27T03:46:48.822Z,4.83
2023-04-27T03:49:16.197Z,5.20
2023-04-27T03:51:44.006Z,5.40
2023-04-27T03:54:11.118Z,5.33
2023-04-27T03:56:38.250Z,4.93
2023-04-27T03:59:05.406Z,5.17
2023-04-27T04:01:34.243Z,5.40
2023-04-27T04:04:01.443Z,5.47
2023-04-27T04:06:28.676Z,5.10
2023-04-27T04:08:57.109Z,5.30
2023-04-27T04:11:24.633Z,5.13
2023-04-27T04:13:55.243Z,5.60
2023-04-27T04:16:22.854Z,5.33
2023-04-27T04:18:49.985Z,5.10
2023-04-27T04:21:17.165Z,5.33
2023-04-27T04:23:44.383Z,5.50
2023-04-27T04:26:11.805Z,5.63
2023-04-27T04:28:38.997Z,5.20
2023-04-27T04:31:06.540Z,6.20
2023-04-27T04:33:33.696Z,5.77
2023-04-27T04:36:05.062Z,6.17
2023-04-27T04:38:33.526Z,5.73
2023-04-27T04:41:01.119Z,5.87
2023-04-27T04:43:31.223Z,5.13
2023-04-27T04:45:58.527Z,5.70
2023-04-27T04:48:25.640Z,6.00
2023-04-27T04:50:52.736Z,5.53
2023-04-27T04:53:19.629Z,4.97
2023-04-27T04:55:46.566Z,5.40
2023-04-27T04:58:13.880Z,5.70
2023-04-27T05:00:40.863Z,5.27
2023-04-27T05:03:08.024Z,5.37
2023-04-27T05:05:35.242Z,5.90
2023-04-27T05:08:02.198Z,5.60
2023-04-27T05:10:29.337Z,6.30
2023-04-27T05:12:56.189Z,7.10
2023-04-27T05:15:23.337Z,6.83
2023-04-27T05:17:50.222Z,7.30
2023-04-27T05:20:17.369Z,6.50
2023-04-27T05:22:44.325Z,6.33
2023-04-27T05:25:11.345Z,6.30
2023-04-27T05:27:38.226Z,6.17
2023-04-27T05:30:05.915Z,6.10
2023-04-27T05:32:33.770Z,6.40
2023-04-27T05:35:00.792Z,6.30
2023-04-27T05:37:27.828Z,6.23
2023-04-27T05:39:54.751Z,6.53
2023-04-27T05:42:21.880Z,6.27
2023-04-27T05:44:48.829Z,6.57
2023-04-27T05:47:15.860Z,5.83
2023-04-27T05:49:43.015Z,5.27
2023-04-27T05:52:09.870Z,5.50
2023-04-27T05:54:36.813Z,6.00
2023-04-27T05:57:03.959Z,5.73
2023-04-27T05:59:30.900Z,6.00
2023-04-27T06:01:58.595Z,6.00
2023-04-27T06:04:26.097Z,5.70
2023-04-27T06:06:53.113Z,5.70
2023-04-27T06:09:20.051Z,6.30
2023-04-27T06:11:47.513Z,6.40
2023-04-27T06:14:14.468Z,5.87
2023-04-27T06:16:41.371Z,6.60
2023-04-27T06:19:09.133Z,6.17
2023-04-27T06:21:36.356Z,6.93
2023-04-27T06:24:03.438Z,6.17
2023-04-27T06:26:30.451Z,6.63
2023-04-27T06:28:57.494Z,6.50
2023-04-27T06:31:24.385Z,6.87
2023-04-27T06:33:51.557Z,6.10
2023-04-27T06:36:18.557Z,6.03
2023-04-27T06:38:45.712Z,5.80
2023-04-27T06:41:12.791Z,6.10
2023-04-27T06:43:39.666Z,6.50
2023-04-27T06:46:06.910Z,6.00
2023-04-27T06:48:34.196Z,5.30
2023-04-27T06:51:01.365Z,5.40
2023-04-27T06:53:30.326Z,5.37
2023-04-27T06:55:57.516Z,5.60
2023-04-27T06:58:24.538Z,5.37
2023-04-27T07:00:51.690Z,5.00
2023-04-27T07:03:18.828Z,4.87
2023-04-27T07:05:46.888Z,5.10
2023-04-27T07:08:14.054Z,5.03
2023-04-27T07:10:41.226Z,4.73
2023-04-27T07:13:09.532Z,5.00
2023-04-27T07:15:36.943Z,5.07
2023-04-27T07:18:04.188Z,5.07
2023-04-27T07:20:31.169Z,5.00
2023-04-27T07:22:58.349Z,5.27
2023-04-27T07:25:25.217Z,6.03
2023-04-27T07:27:52.496Z,4.87
2023-04-27T07:30:19.654Z,5.27
2023-04-27T07:32:48.078Z,5.27
2023-04-27T07:35:15.065Z,5.53
2023-04-27T07:37:44.067Z,5.17
2023-04-27T07:40:16.540Z,4.83
2023-04-27T07:42:44.850Z,4.73
2023-04-27T07:45:12.079Z,4.73
2023-04-27T07:47:39.200Z,4.77
2023-04-27T07:50:10.281Z,4.53
2023-04-27T07:52:37.540Z,4.57
2023-04-27T07:55:04.831Z,4.80
2023-04-27T07:57:31.907Z,4.20
2023-04-27T07:59:58.869Z,4.00
2023-04-27T08:02:31.515Z,4.27
2023-04-27T08:04:59.085Z,4.10
2023-04-27T08:07:27.005Z,3.83
2023-04-27T08:09:54.407Z,3.80
2023-04-27T08:12:21.649Z,3.13
2023-04-27T08:14:48.792Z,3.83
2023-04-27T08:17:17.521Z,4.10
2023-04-27T08:19:44.736Z,3.50
2023-04-27T08:22:11.680Z,3.80
2023-04-27T08:24:38.674Z,3.13
2023-04-27T08:27:09.244Z,3.47
2023-04-27T08:29:36.202Z,3.10
2023-04-27T08:32:05.829Z,3.93
2023-04-27T08:34:32.859Z,3.17
2023-04-27T08:37:00.590Z,3.07
2023-04-27T08:39:27.956Z,3.27
2023-04-27T08:41:54.976Z,3.20
2023-04-27T08:44:21.987Z,3.60
2023-04-27T08:46:49.082Z,3.40
2023-04-27T08:49:17.074Z,3.22
2023-04-27T08:51:45.027Z,3.30
2023-04-27T08:54:11.985Z,2.73
2023-04-27T08:56:39.898Z,3.20
2023-04-27T08:59:16.531Z,3.35
2023-04-27T09:01:49.293Z,3.17
2023-04-27T09:04:18.163Z,3.00
2023-04-27T09:06:45.811Z,3.60
2023-04-27T09:09:23.576Z,3.20
2023-04-27T09:11:51.271Z,3.08
2023-04-27T09:14:22.799Z,2.67
2023-04-27T09:16:59.253Z,2.42
2023-04-27T09:19:30.871Z,2.67
2023-04-27T09:22:13.609Z,3.13
2023-04-27T09:24:52.519Z,3.08
2023-04-27T09:29:00.597Z,2.70
2023-04-27T09:42:40.102Z,2.70
2023-04-27T09:45:09.656Z,3.15
2023-04-27T09:47:37.347Z,3.20
2023-04-27T09:50:06.316Z,3.20
2023-04-27T09:52:33.250Z,3.13
2023-04-27T09:55:03.535Z,2.95
2023-04-27T09:58:06.402Z,3.50
2023-04-27T10:01:01.261Z,3.13
2023-04-27T10:03:51.462Z,3.00
2023-04-27T10:06:45.910Z,2.58
2023-04-27T10:09:13.345Z,2.70
2023-04-27T10:11:48.069Z,3.00
2023-04-27T10:14:21.582Z,2.63
2023-04-27T10:16:57.525Z,3.10
2023-04-27T10:19:25.773Z,3.00
2023-04-27T10:22:08.011Z,3.60
2023-04-27T10:24:40.759Z,2.80
2023-04-27T10:27:11.337Z,2.60
2023-04-27T10:29:44.038Z,3.13
2023-04-27T10:32:18.920Z,2.40
2023-04-27T10:34:47.666Z,2.50
2023-04-27T10:37:15.946Z,2.80
2023-04-27T10:39:49.028Z,2.25
2023-04-27T10:42:28.790Z,2.75
2023-04-27T10:44:59.456Z,3.53
2023-04-27T10:47:44.166Z,2.90
2023-04-27T10:50:13.773Z,2.90
2023-04-27T10:52:43.131Z,2.70
2023-04-27T10:55:18.421Z,2.75
2023-04-27T10:57:54.581Z,2.88
2023-04-27T11:00:46.669Z,2.88
2023-04-27T11:03:24.106Z,2.85
2023-04-27T11:06:02.477Z,2.47
2023-04-27T11:08:30.798Z,2.80
2023-04-27T11:10:57.783Z,2.75
2023-04-27T11:13:28.235Z,2.85
2023-04-27T11:15:58.161Z,3.30
2023-04-27T11:18:31.574Z,3.47
2023-04-27T11:21:09.341Z,3.42
2023-04-27T11:23:38.148Z,2.92
2023-04-27T11:26:18.740Z,2.95
2023-04-27T11:29:04.990Z,3.53
2023-04-27T11:31:48.881Z,3.45
2023-04-27T11:34:26.532Z,3.00
2023-04-27T11:39:41.461Z,2.97
2023-04-27T11:42:19.617Z,3.00
2023-04-27T11:44:58.467Z,3.40
2023-04-27T11:47:28.225Z,3.13
2023-04-27T11:49:57.697Z,2.90
2023-04-27T11:52:36.579Z,2.90
2023-04-27T11:55:05.078Z,3.30
2023-04-27T11:57:35.952Z,2.72
2023-04-27T12:00:14.013Z,2.95
2023-04-27T12:02:43.502Z,3.17
2023-04-27T12:05:12.618Z,2.95
2023-04-27T12:07:40.284Z,3.13
2023-04-27T12:10:08.393Z,2.70
2023-04-27T12:12:35.941Z,3.33
2023-04-27T12:15:03.304Z,2.90
2023-04-27T12:17:30.382Z,3.25
2023-04-27T12:19:57.372Z,3.50
2023-04-27T12:22:24.388Z,3.55
2023-04-27T12:24:51.590Z,3.60
2023-04-27T12:27:18.570Z,3.13
2023-04-27T12:29:45.591Z,2.95
2023-04-27T12:32:12.550Z,3.85
2023-04-27T12:34:39.645Z,3.30
2023-04-27T12:37:07.083Z,3.42
2023-04-27T12:39:34.284Z,3.35
2023-04-27T12:42:02.325Z,3.10
2023-04-27T12:44:29.392Z,3.35
2023-04-27T12:46:56.795Z,3.17
2023-04-27T12:49:23.757Z,3.25
2023-04-27T12:51:52.077Z,3.70
2023-04-27T12:54:19.039Z,3.10
2023-04-27T12:56:47.066Z,2.67
2023-04-27T12:59:14.321Z,2.83
2023-04-27T13:01:41.570Z,2.90
2023-04-27T13:04:09.177Z,3.00
2023-04-27T13:06:36.303Z,3.15
2023-04-27T13:09:03.255Z,3.38
2023-04-27T13:11:30.524Z,3.85
2023-04-27T13:13:57.675Z,3.70
2023-04-27T13:16:25.632Z,3.30
2023-04-27T13:18:55.444Z,3.40
2023-04-27T13:21:23.613Z,3.20
2023-04-27T13:23:51.980Z,3.33
2023-04-27T13:26:19.084Z,3.17
2023-04-27T13:28:46.186Z,3.22
2023-04-27T13:31:13.385Z,2.95
2023-04-27T13:33:42.933Z,3.20
2023-04-27T13:36:11.825Z,2.92
2023-04-27T13:38:39.695Z,2.88
2023-04-27T13:41:08.139Z,3.00
2023-04-27T13:43:35.846Z,2.90
2023-04-27T13:46:03.359Z,2.75
2023-04-27T13:48:31.044Z,3.38
2023-04-27T13:50:58.695Z,3.47
2023-04-27T13:53:26.460Z,3.03
2023-04-27T13:55:56.055Z,3.53
2023-04-27T13:58:26.111Z,3.40
2023-04-27T14:00:54.577Z,3.25
2023-04-27T14:03:22.542Z,3.20
2023-04-27T14:05:51.234Z,3.05
2023-04-27T14:08:18.561Z,3.10
2023-04-27T14:10:46.263Z,3.20
2023-04-27T14:13:13.720Z,3.35
2023-04-27T14:15:41.736Z,2.88
2023-04-27T14:18:09.842Z,3.05
2023-04-27T14:20:38.627Z,3.30
2023-04-27T14:23:07.030Z,3.60
2023-04-27T14:25:34.800Z,3.30
2023-04-27T14:28:05.308Z,3.53
2023-04-27T14:30:33.681Z,3.38
2023-04-27T14:33:01.395Z,3.70
2023-04-27T14:35:28.738Z,3.63
2023-04-27T14:37:57.140Z,3.35
2023-04-27T14:40:24.292Z,3.80
2023-04-27T14:42:51.176Z,3.10
2023-04-27T14:45:18.919Z,3.38
2023-04-27T14:47:46.457Z,3.33
2023-04-27T14:50:13.534Z,3.38
2023-04-27T14:52:40.533Z,3.90
2023-04-27T14:55:08.945Z,3.25
2023-04-27T14:57:36.807Z,3.35
2023-04-27T15:00:09.801Z,3.90
2023-04-27T15:02:40.978Z,3.47
2023-04-27T15:05:09.168Z,3.47
2023-04-27T15:07:36.428Z,3.80
2023-04-27T15:10:04.177Z,4.03
2023-04-27T15:12:31.109Z,3.70
2023-04-27T15:14:58.167Z,3.75
2023-04-27T15:17:25.699Z,3.45
2023-04-27T15:19:52.720Z,3.97
2023-04-27T15:22:19.599Z,4.43
2023-04-27T15:24:46.861Z,4.10
2023-04-27T15:27:13.776Z,3.70
2023-04-27T15:29:41.862Z,4.53
2023-04-27T15:32:08.929Z,3.97
2023-04-27T15:34:35.855Z,3.53
2023-04-27T15:37:03.574Z,3.80
2023-04-27T15:39:31.266Z,3.45
2023-04-27T15:41:59.661Z,3.35
2023-04-27T15:44:27.033Z,4.07
2023-04-27T15:46:54.466Z,3.78
2023-04-27T15:49:21.896Z,3.95
2023-04-27T15:51:49.228Z,3.63
2023-04-27T15:54:18.088Z,3.90
2023-04-27T15:56:45.037Z,3.83
2023-04-27T15:59:12.477Z,3.85
2023-04-27T16:01:39.548Z,3.58
2023-04-27T16:04:06.851Z,3.53
2023-04-27T16:06:36.640Z,3.50
2023-04-27T16:09:06.566Z,3.90
2023-04-27T16:11:34.664Z,3.70
2023-04-27T16:14:01.549Z,3.55
2023-04-27T16:16:28.504Z,4.07
2023-04-27T16:18:55.438Z,4.03
2023-04-27T16:21:22.448Z,3.92
2023-04-27T16:23:49.614Z,3.80
2023-04-27T16:26:18.035Z,4.28
2023-04-27T16:28:44.918Z,4.50
2023-04-27T16:31:13.452Z,3.78
2023-04-27T16:33:40.531Z,4.05
2023-04-27T16:36:07.942Z,4.10
2023-04-27T16:38:36.108Z,3.90
2023-04-27T16:41:07.407Z,4.28
2023-04-27T16:43:34.417Z,5.00
2023-04-27T16:46:01.411Z,4.05
2023-04-27T16:48:28.473Z,4.32
2023-04-27T16:50:55.890Z,4.45
2023-04-27T16:53:22.906Z,4.00
2023-04-27T16:55:49.798Z,4.18
2023-04-27T16:58:17.700Z,4.47
2023-04-27T17:00:44.739Z,4.13
2023-04-27T17:03:12.079Z,4.57
2023-04-27T17:05:39.391Z,4.32
2023-04-27T17:08:06.384Z,4.20
2023-04-27T17:10:33.350Z,4.15
2023-04-27T17:13:00.393Z,4.05
2023-04-27T17:15:28.690Z,4.32
2023-04-27T17:17:56.216Z,4.20
2023-04-27T17:20:23.290Z,4.70
2023-04-27T17:22:50.387Z,4.65
2023-04-27T17:25:17.381Z,4.50
2023-04-27T17:27:44.431Z,4.60
2023-04-27T17:30:12.015Z,4.90
2023-04-27T17:32:39.067Z,4.60
2023-04-27T17:35:06.748Z,4.28
2023-04-27T17:37:33.896Z,4.60
2023-04-27T17:40:01.191Z,4.45
2023-04-27T17:42:28.201Z,4.68
2023-04-27T17:44:55.573Z,5.03
2023-04-27T17:47:25.268Z,4.43
2023-04-27T17:49:52.265Z,4.90
2023-04-27T17:52:19.105Z,4.60
2023-04-27T17:54:46.141Z,4.50
2023-04-27T17:57:13.085Z,4.37
2023-04-27T17:59:40.807Z,4.60
2023-04-27T18:02:07.824Z,4.37
2023-04-27T18:04:35.011Z,4.95
2023-04-27T18:07:02.104Z,4.37
2023-04-27T18:09:30.736Z,4.53
2023-04-27T18:12:00.062Z,4.43
2023-04-27T18:14:26.955Z,4.13
2023-04-27T18:16:54.765Z,4.03
2023-04-27T18:19:22.721Z,3.80
2023-04-27T18:21:49.694Z,4.23
2023-04-27T18:24:16.734Z,4.17
2023-04-27T18:26:43.705Z,4.47
2023-04-27T18:29:10.607Z,4.30
2023-04-27T18:31:38.028Z,4.73
2023-04-27T18:34:05.077Z,4.40
2023-04-27T18:36:32.256Z,4.20
2023-04-27T18:38:59.638Z,4.60
2023-04-27T18:41:26.584Z,4.30
2023-04-27T18:43:53.760Z,4.27
2023-04-27T18:46:21.001Z,4.10
2023-04-27T18:48:48.127Z,4.27
2023-04-27T18:51:15.181Z,4.07
2023-04-27T18:53:42.185Z,4.47
2023-04-27T18:56:10.213Z,4.17
2023-04-27T18:58:37.163Z,4.27
2023-04-27T19:01:04.238Z,4.33
2023-04-27T19:03:31.401Z,4.70
2023-04-27T19:05:58.767Z,4.27
2023-04-27T19:08:25.816Z,4.57
2023-04-27T19:10:53.121Z,4.53
2023-04-27T19:13:20.041Z,4.60
2023-04-27T19:15:47.400Z,4.53
2023-04-27T19:18:14.321Z,5.40
2023-04-27T19:20:41.436Z,4.67
2023-04-27T19:23:12.137Z,4.70
2023-04-27T19:25:40.398Z,4.33
2023-04-27T19:28:07.870Z,4.63
2023-04-27T19:30:34.853Z,4.87
2023-04-27T19:33:02.166Z,5.00
2023-04-27T19:35:30.249Z,4.87
2023-04-27T19:37:57.099Z,5.13
2023-04-27T19:40:24.283Z,5.03
2023-04-27T19:42:51.228Z,4.73
2023-04-27T19:45:18.380Z,4.23
2023-04-27T19:47:46.047Z,4.40
2023-04-27T19:50:13.270Z,4.53
2023-04-27T19:52:40.668Z,4.57
2023-04-27T19:55:08.619Z,4.27
2023-04-27T19:57:36.371Z,4.37
2023-04-27T20:00:11.631Z,4.90
2023-04-27T20:02:42.006Z,4.70
2023-04-27T20:05:09.818Z,4.67
2023-04-27T20:07:37.681Z,4.47
2023-04-27T20:10:27.886Z,4.30
2023-04-27T20:12:57.119Z,3.70
2023-04-27T20:15:25.289Z,4.20
2023-04-27T20:17:53.702Z,3.90
2023-04-27T20:20:20.865Z,3.90
2023-04-27T20:22:48.004Z,4.37
2023-04-27T20:25:15.150Z,4.30
2023-04-27T20:27:42.384Z,3.87
2023-04-27T20:30:09.965Z,4.20
2023-04-27T20:32:39.533Z,4.40
2023-04-27T20:35:11.323Z,4.07
2023-04-27T20:37:39.990Z,4.00
2023-04-27T20:40:08.121Z,4.10
2023-04-27T20:42:36.000Z,4.27
2023-04-27T20:45:05.412Z,3.87
2023-04-27T20:47:32.517Z,4.53
2023-04-27T20:49:59.525Z,3.90
2023-04-27T20:52:29.441Z,4.30
2023-04-27T20:54:58.079Z,4.13
2023-04-27T20:57:25.173Z,4.07
2023-04-27T20:59:52.964Z,3.90
2023-04-27T21:02:20.258Z,3.70
2023-04-27T21:04:47.386Z,3.97
2023-04-27T21:07:14.586Z,4.03
2023-04-27T21:09:41.722Z,3.80
2023-04-27T21:12:08.996Z,4.03
2023-04-27T21:14:36.088Z,4.37
2023-04-27T21:17:03.027Z,3.97
2023-04-27T21:19:30.801Z,4.53
2023-04-27T21:21:57.815Z,4.70
2023-04-27T21:24:25.083Z,4.67
2023-04-27T21:26:52.284Z,4.40
2023-04-27T21:29:19.474Z,3.63
2023-04-27T21:31:46.309Z,4.17
2023-04-27T21:34:14.351Z,4.40
2023-04-27T21:36:41.635Z,4.17
2023-04-27T21:39:08.524Z,4.17
2023-04-27T21:41:35.717Z,4.50
2023-04-27T21:44:02.889Z,4.60
2023-04-27T21:46:29.803Z,4.47
2023-04-27T21:48:56.762Z,4.43
2023-04-27T21:51:24.470Z,4.13
2023-04-27T21:53:51.445Z,4.50
2023-04-27T21:56:18.389Z,4.17
2023-04-27T21:58:45.328Z,4.67
2023-04-27T22:01:13.195Z,4.90
2023-04-27T22:03:40.414Z,4.30
2023-04-27T22:06:09.063Z,4.33
2023-04-27T22:08:36.385Z,4.80
2023-04-27T22:11:03.273Z,4.20
2023-04-27T22:13:30.357Z,4.53
2023-04-27T22:15:57.374Z,4.27
2023-04-27T22:18:24.668Z,4.57
2023-04-27T22:20:52.527Z,4.67
2023-04-27T22:23:19.821Z,4.93
2023-04-27T22:25:46.983Z,4.70
2023-04-27T22:28:13.988Z,4.73
2023-04-27T22:30:44.131Z,5.00
2023-04-27T22:33:11.379Z,5.43
2023-04-27T22:35:38.986Z,5.13
2023-04-27T22:38:07.042Z,5.10
2023-04-27T22:40:35.171Z,5.53
2023-04-27T22:43:02.089Z,5.37
2023-04-27T22:45:29.139Z,5.30
2023-04-27T22:47:57.558Z,5.40
2023-04-27T22:50:24.554Z,5.03
2023-04-27T22:52:53.017Z,6.00
2023-04-27T22:55:20.216Z,5.33
2023-04-27T22:57:47.266Z,4.80
2023-04-27T23:00:15.388Z,5.13
2023-04-27T23:02:43.113Z,5.10
2023-04-27T23:05:13.283Z,4.87
2023-04-27T23:07:42.979Z,5.40
2023-04-27T23:10:10.750Z,5.17
2023-04-27T23:12:38.666Z,5.03
2023-04-27T23:15:06.203Z,5.07
2023-04-27T23:17:33.445Z,4.57
2023-04-27T23:20:04.046Z,5.20
2023-04-27T23:22:31.573Z,5.40
2023-04-27T23:24:58.411Z,5.03
2023-04-27T23:27:25.389Z,5.10
2023-04-27T23:29:52.642Z,5.70
2023-04-27T23:32:20.003Z,5.43
2023-04-27T23:34:46.981Z,5.53
2023-04-27T23:37:13.924Z,5.30
2023-04-27T23:39:40.949Z,5.57
2023-04-27T23:42:07.829Z,6.10
2023-04-27T23:44:34.820Z,5.53
2023-04-27T23:47:01.689Z,5.93
2023-04-27T23:49:28.782Z,5.83
2023-04-27T23:51:55.959Z,5.47
2023-04-27T23:54:23.294Z,5.97
2023-04-27T23:56:53.421Z,5.73
2023-04-27T23:59:20.381Z,6.20
